sensor_id;sensor_type;location;lat;lon;timestamp;temperature;humidity
1049;DHT22;513;51.444;7.196;2022-12-07T00:01:17;4.60;99.90
1049;DHT22;513;51.444;7.196;2022-12-07T00:03:45;4.60;99.90
1049;DHT22;513;51.444;7.196;2022-12-07T00:06:14;4.70;99.90
1049;DHT22;513;51.444;7.196;2022-12-07T00:08:41;4.70;99.90
1049;DHT22;513;51.444;7.196;2022-12-07T00:11:11;4.70;99.90
1049;DHT22;513;51.444;7.196;2022-12-07T00:13:38;4.70;99.90
1049;DHT22;513;51.444;7.196;2022-12-07T00:16:09;4.70;99.90
1049;DHT22;513;51.444;7.196;2022-12-07T00:18:37;4.70;99.90
1049;DHT22;513;51.444;7.196;2022-12-07T00:21:06;4.70;99.90
1049;DHT22;513;51.444;7.196;2022-12-07T00:23:33;4.70;99.90
1049;DHT22;513;51.444;7.196;2022-12-07T00:26:04;4.70;99.90
1049;DHT22;513;51.444;7.196;2022-12-07T00:28:31;4.70;99.90
1049;DHT22;513;51.444;7.196;2022-12-07T00:31:01;4.70;99.90
1049;DHT22;513;51.444;7.196;2022-12-07T00:33:29;4.80;99.90
1049;DHT22;513;51.444;7.196;2022-12-07T00:35:56;4.70;99.90
1049;DHT22;513;51.444;7.196;2022-12-07T00:38:23;4.70;99.90
1049;DHT22;513;51.444;7.196;2022-12-07T00:40:54;4.70;99.90
1049;DHT22;513;51.444;7.196;2022-12-07T00:43:21;4.70;99.90
1049;DHT22;513;51.444;7.196;2022-12-07T00:45:48;4.70;99.90
1049;DHT22;513;51.444;7.196;2022-12-07T00:48:14;4.80;99.90
1049;DHT22;513;51.444;7.196;2022-12-07T00:50:42;4.80;99.90
1049;DHT22;513;51.444;7.196;2022-12-07T00:53:09;4.80;99.90
1049;DHT22;513;51.444;7.196;2022-12-07T00:55:36;4.80;99.90
1049;DHT22;513;51.444;7.196;2022-12-07T00:58:03;4.70;99.90
1049;DHT22;513;51.444;7.196;2022-12-07T01:00:30;4.80;99.90
1049;DHT22;513;51.444;7.196;2022-12-07T01:02:57;4.80;99.90
1049;DHT22;513;51.444;7.196;2022-12-07T01:05:23;4.80;99.90
1049;DHT22;513;51.444;7.196;2022-12-07T01:07:51;4.80;99.90
1049;DHT22;513;51.444;7.196;2022-12-07T01:10:18;4.70;99.90
1049;DHT22;513;51.444;7.196;2022-12-07T01:12:45;4.70;99.90
1049;DHT22;513;51.444;7.196;2022-12-07T01:15:11;4.80;99.90
1049;DHT22;513;51.444;7.196;2022-12-07T01:17:38;4.80;99.90
1049;DHT22;513;51.444;7.196;2022-12-07T01:20:06;4.80;99.90
1049;DHT22;513;51.444;7.196;2022-12-07T01:22:36;4.80;99.90
1049;DHT22;513;51.444;7.196;2022-12-07T01:25:04;4.80;99.90
1049;DHT22;513;51.444;7.196;2022-12-07T01:27:32;4.90;99.90
1049;DHT22;513;51.444;7.196;2022-12-07T01:29:59;4.90;99.90
1049;DHT22;513;51.444;7.196;2022-12-07T01:32:26;4.90;99.90
1049;DHT22;513;51.444;7.196;2022-12-07T01:34:53;4.90;99.90
1049;DHT22;513;51.444;7.196;2022-12-07T01:37:20;4.90;99.90
1049;DHT22;513;51.444;7.196;2022-12-07T01:39:48;4.90;99.90
1049;DHT22;513;51.444;7.196;2022-12-07T01:42:16;4.90;99.90
1049;DHT22;513;51.444;7.196;2022-12-07T01:45:31;4.90;99.90
1049;DHT22;513;51.444;7.196;2022-12-07T01:48:04;4.90;99.90
1049;DHT22;513;51.444;7.196;2022-12-07T01:50:31;4.90;99.90
1049;DHT22;513;51.444;7.196;2022-12-07T01:52:59;4.90;99.90
1049;DHT22;513;51.444;7.196;2022-12-07T01:55:29;4.90;99.90
1049;DHT22;513;51.444;7.196;2022-12-07T01:57:57;4.90;99.90
1049;DHT22;513;51.444;7.196;2022-12-07T02:00:24;4.90;99.90
1049;DHT22;513;51.444;7.196;2022-12-07T02:02:53;4.90;99.90
1049;DHT22;513;51.444;7.196;2022-12-07T02:05:20;4.90;99.90
1049;DHT22;513;51.444;7.196;2022-12-07T02:07:49;5.00;99.90
1049;DHT22;513;51.444;7.196;2022-12-07T02:10:19;4.90;99.90
1049;DHT22;513;51.444;7.196;2022-12-07T02:12:48;4.90;99.90
1049;DHT22;513;51.444;7.196;2022-12-07T02:15:17;4.90;99.90
1049;DHT22;513;51.444;7.196;2022-12-07T02:17:51;4.90;99.90
1049;DHT22;513;51.444;7.196;2022-12-07T02:20:27;4.90;99.90
1049;DHT22;513;51.444;7.196;2022-12-07T02:23:23;4.90;99.90
1049;DHT22;513;51.444;7.196;2022-12-07T02:26:30;4.80;99.90
1049;DHT22;513;51.444;7.196;2022-12-07T02:29:14;4.80;99.90
1049;DHT22;513;51.444;7.196;2022-12-07T02:31:46;4.90;99.90
1049;DHT22;513;51.444;7.196;2022-12-07T02:34:20;4.90;99.90
1049;DHT22;513;51.444;7.196;2022-12-07T02:36:52;4.90;99.90
1049;DHT22;513;51.444;7.196;2022-12-07T02:39:26;4.90;99.90
1049;DHT22;513;51.444;7.196;2022-12-07T02:41:59;4.90;99.90
1049;DHT22;513;51.444;7.196;2022-12-07T02:44:30;4.90;99.90
1049;DHT22;513;51.444;7.196;2022-12-07T02:47:01;4.90;99.90
1049;DHT22;513;51.444;7.196;2022-12-07T02:49:29;4.90;99.90
1049;DHT22;513;51.444;7.196;2022-12-07T02:51:56;4.90;99.90
1049;DHT22;513;51.444;7.196;2022-12-07T02:54:23;4.90;99.90
1049;DHT22;513;51.444;7.196;2022-12-07T02:56:52;4.90;99.90
1049;DHT22;513;51.444;7.196;2022-12-07T02:59:28;4.90;99.90
1049;DHT22;513;51.444;7.196;2022-12-07T03:02:12;4.90;99.90
1049;DHT22;513;51.444;7.196;2022-12-07T03:04:49;4.90;99.90
1049;DHT22;513;51.444;7.196;2022-12-07T03:07:24;4.80;99.90
1049;DHT22;513;51.444;7.196;2022-12-07T03:09:59;4.80;99.90
1049;DHT22;513;51.444;7.196;2022-12-07T03:12:31;4.80;99.90
1049;DHT22;513;51.444;7.196;2022-12-07T03:15:02;4.80;99.90
1049;DHT22;513;51.444;7.196;2022-12-07T03:17:35;4.80;99.90
1049;DHT22;513;51.444;7.196;2022-12-07T03:20:05;4.80;99.90
1049;DHT22;513;51.444;7.196;2022-12-07T03:22:35;4.70;99.90
1049;DHT22;513;51.444;7.196;2022-12-07T03:25:06;4.70;99.90
1049;DHT22;513;51.444;7.196;2022-12-07T03:27:38;4.70;99.90
1049;DHT22;513;51.444;7.196;2022-12-07T03:30:11;4.60;99.90
1049;DHT22;513;51.444;7.196;2022-12-07T03:32:43;4.50;99.90
1049;DHT22;513;51.444;7.196;2022-12-07T03:35:15;4.50;99.90
1049;DHT22;513;51.444;7.196;2022-12-07T03:37:47;4.50;99.90
1049;DHT22;513;51.444;7.196;2022-12-07T03:40:18;4.50;99.90
1049;DHT22;513;51.444;7.196;2022-12-07T03:42:47;4.40;99.90
1049;DHT22;513;51.444;7.196;2022-12-07T03:45:14;4.40;99.90
1049;DHT22;513;51.444;7.196;2022-12-07T03:47:47;4.40;99.90
1049;DHT22;513;51.444;7.196;2022-12-07T03:50:21;4.30;99.90
1049;DHT22;513;51.444;7.196;2022-12-07T03:52:54;4.40;99.90
1049;DHT22;513;51.444;7.196;2022-12-07T03:55:26;4.40;99.90
1049;DHT22;513;51.444;7.196;2022-12-07T03:57:56;4.40;99.90
1049;DHT22;513;51.444;7.196;2022-12-07T04:00:25;4.40;99.90
1049;DHT22;513;51.444;7.196;2022-12-07T04:02:54;4.40;99.90
1049;DHT22;513;51.444;7.196;2022-12-07T04:05:21;4.30;99.90
1049;DHT22;513;51.444;7.196;2022-12-07T04:07:48;4.20;99.90
1049;DHT22;513;51.444;7.196;2022-12-07T04:10:14;4.20;99.90
1049;DHT22;513;51.444;7.196;2022-12-07T04:12:41;4.20;99.90
1049;DHT22;513;51.444;7.196;2022-12-07T04:15:08;4.30;99.90
1049;DHT22;513;51.444;7.196;2022-12-07T04:17:35;4.30;99.90
1049;DHT22;513;51.444;7.196;2022-12-07T04:20:05;4.30;99.90
1049;DHT22;513;51.444;7.196;2022-12-07T04:22:31;4.30;99.90
1049;DHT22;513;51.444;7.196;2022-12-07T04:24:58;4.30;99.90
1049;DHT22;513;51.444;7.196;2022-12-07T04:27:25;4.30;99.90
1049;DHT22;513;51.444;7.196;2022-12-07T04:29:51;4.30;99.90
1049;DHT22;513;51.444;7.196;2022-12-07T04:32:18;4.30;99.90
1049;DHT22;513;51.444;7.196;2022-12-07T04:34:45;4.20;99.90
1049;DHT22;513;51.444;7.196;2022-12-07T04:37:13;4.20;99.90
1049;DHT22;513;51.444;7.196;2022-12-07T04:39:40;4.30;99.90
1049;DHT22;513;51.444;7.196;2022-12-07T04:42:06;4.20;99.90
1049;DHT22;513;51.444;7.196;2022-12-07T04:44:33;4.30;99.90
1049;DHT22;513;51.444;7.196;2022-12-07T04:47:00;4.20;99.90
1049;DHT22;513;51.444;7.196;2022-12-07T04:49:27;4.20;99.90
1049;DHT22;513;51.444;7.196;2022-12-07T04:51:54;4.20;99.90
1049;DHT22;513;51.444;7.196;2022-12-07T04:54:22;4.20;99.90
1049;DHT22;513;51.444;7.196;2022-12-07T04:56:49;4.20;99.90
1049;DHT22;513;51.444;7.196;2022-12-07T04:59:16;4.10;99.90
1049;DHT22;513;51.444;7.196;2022-12-07T05:01:43;4.10;99.90
1049;DHT22;513;51.444;7.196;2022-12-07T05:04:10;4.10;99.90
1049;DHT22;513;51.444;7.196;2022-12-07T05:06:37;4.10;99.90
1049;DHT22;513;51.444;7.196;2022-12-07T05:09:04;4.10;99.90
1049;DHT22;513;51.444;7.196;2022-12-07T05:11:32;4.10;99.90
1049;DHT22;513;51.444;7.196;2022-12-07T05:14:06;4.10;99.90
1049;DHT22;513;51.444;7.196;2022-12-07T05:16:33;4.10;99.90
1049;DHT22;513;51.444;7.196;2022-12-07T05:19:00;4.10;99.90
1049;DHT22;513;51.444;7.196;2022-12-07T05:21:26;4.20;99.90
1049;DHT22;513;51.444;7.196;2022-12-07T05:23:53;4.10;99.90
1049;DHT22;513;51.444;7.196;2022-12-07T05:26:20;4.10;99.90
1049;DHT22;513;51.444;7.196;2022-12-07T05:28:51;4.00;99.90
1049;DHT22;513;51.444;7.196;2022-12-07T05:31:18;4.00;99.90
1049;DHT22;513;51.444;7.196;2022-12-07T05:33:45;4.10;99.90
1049;DHT22;513;51.444;7.196;2022-12-07T05:36:11;4.00;99.90
1049;DHT22;513;51.444;7.196;2022-12-07T05:38:38;4.00;99.90
1049;DHT22;513;51.444;7.196;2022-12-07T05:41:06;4.00;99.90
1049;DHT22;513;51.444;7.196;2022-12-07T05:43:33;4.00;99.90
1049;DHT22;513;51.444;7.196;2022-12-07T05:46:01;4.00;99.90
1049;DHT22;513;51.444;7.196;2022-12-07T05:48:27;4.00;99.90
1049;DHT22;513;51.444;7.196;2022-12-07T05:50:54;3.90;99.90
1049;DHT22;513;51.444;7.196;2022-12-07T05:53:21;4.00;99.90
1049;DHT22;513;51.444;7.196;2022-12-07T05:55:47;3.90;99.90
1049;DHT22;513;51.444;7.196;2022-12-07T05:58:14;3.90;99.90
1049;DHT22;513;51.444;7.196;2022-12-07T06:00:58;3.90;99.90
1049;DHT22;513;51.444;7.196;2022-12-07T06:03:26;3.90;99.90
1049;DHT22;513;51.444;7.196;2022-12-07T06:05:53;3.90;99.90
1049;DHT22;513;51.444;7.196;2022-12-07T06:08:20;3.90;99.90
1049;DHT22;513;51.444;7.196;2022-12-07T06:10:47;3.90;99.90
1049;DHT22;513;51.444;7.196;2022-12-07T06:13:35;3.90;99.90
1049;DHT22;513;51.444;7.196;2022-12-07T06:16:00;3.90;99.90
1049;DHT22;513;51.444;7.196;2022-12-07T06:18:28;3.90;99.90
1049;DHT22;513;51.444;7.196;2022-12-07T06:20:55;3.90;99.90
1049;DHT22;513;51.444;7.196;2022-12-07T06:23:22;3.90;99.90
1049;DHT22;513;51.444;7.196;2022-12-07T06:25:48;3.90;99.90
1049;DHT22;513;51.444;7.196;2022-12-07T06:28:15;3.90;99.90
1049;DHT22;513;51.444;7.196;2022-12-07T06:30:41;3.90;99.90
1049;DHT22;513;51.444;7.196;2022-12-07T06:33:08;4.00;99.90
1049;DHT22;513;51.444;7.196;2022-12-07T06:35:36;3.90;99.90
1049;DHT22;513;51.444;7.196;2022-12-07T06:38:03;3.90;99.90
1049;DHT22;513;51.444;7.196;2022-12-07T06:40:30;3.80;99.90
1049;DHT22;513;51.444;7.196;2022-12-07T06:42:56;3.90;99.90
1049;DHT22;513;51.444;7.196;2022-12-07T06:45:23;3.90;99.90
1049;DHT22;513;51.444;7.196;2022-12-07T06:47:50;3.90;99.90
1049;DHT22;513;51.444;7.196;2022-12-07T06:50:17;3.80;99.90
1049;DHT22;513;51.444;7.196;2022-12-07T06:52:45;3.80;99.90
1049;DHT22;513;51.444;7.196;2022-12-07T06:55:11;3.80;99.90
1049;DHT22;513;51.444;7.196;2022-12-07T06:57:38;3.80;99.90
1049;DHT22;513;51.444;7.196;2022-12-07T07:00:06;3.90;99.90
1049;DHT22;513;51.444;7.196;2022-12-07T07:02:33;3.90;99.90
1049;DHT22;513;51.444;7.196;2022-12-07T07:04:59;3.90;99.90
1049;DHT22;513;51.444;7.196;2022-12-07T07:07:26;3.90;99.90
1049;DHT22;513;51.444;7.196;2022-12-07T07:09:54;3.90;99.90
1049;DHT22;513;51.444;7.196;2022-12-07T07:12:21;3.90;99.90
1049;DHT22;513;51.444;7.196;2022-12-07T07:14:47;3.80;99.90
1049;DHT22;513;51.444;7.196;2022-12-07T07:17:14;3.80;99.90
1049;DHT22;513;51.444;7.196;2022-12-07T07:19:41;3.70;99.90
1049;DHT22;513;51.444;7.196;2022-12-07T07:22:08;3.80;99.90
1049;DHT22;513;51.444;7.196;2022-12-07T07:24:34;3.70;99.90
1049;DHT22;513;51.444;7.196;2022-12-07T07:27:03;3.80;99.90
1049;DHT22;513;51.444;7.196;2022-12-07T07:29:29;3.70;99.90
1049;DHT22;513;51.444;7.196;2022-12-07T07:31:56;3.70;99.90
1049;DHT22;513;51.444;7.196;2022-12-07T07:34:23;3.70;99.90
1049;DHT22;513;51.444;7.196;2022-12-07T07:36:49;3.70;99.90
1049;DHT22;513;51.444;7.196;2022-12-07T07:39:16;3.70;99.90
1049;DHT22;513;51.444;7.196;2022-12-07T07:41:43;3.70;99.90
1049;DHT22;513;51.444;7.196;2022-12-07T07:44:11;3.70;99.90
1049;DHT22;513;51.444;7.196;2022-12-07T07:46:37;3.70;99.90
1049;DHT22;513;51.444;7.196;2022-12-07T07:49:04;3.70;99.90
1049;DHT22;513;51.444;7.196;2022-12-07T07:51:31;3.70;99.90
1049;DHT22;513;51.444;7.196;2022-12-07T07:53:57;3.70;99.90
1049;DHT22;513;51.444;7.196;2022-12-07T07:56:24;3.70;99.90
1049;DHT22;513;51.444;7.196;2022-12-07T07:58:51;3.70;99.90
1049;DHT22;513;51.444;7.196;2022-12-07T08:01:19;3.70;99.90
1049;DHT22;513;51.444;7.196;2022-12-07T08:03:46;3.70;99.90
1049;DHT22;513;51.444;7.196;2022-12-07T08:06:13;3.60;99.90
1049;DHT22;513;51.444;7.196;2022-12-07T08:08:40;3.60;99.90
1049;DHT22;513;51.444;7.196;2022-12-07T08:11:08;3.70;99.90
1049;DHT22;513;51.444;7.196;2022-12-07T08:13:35;3.70;99.90
1049;DHT22;513;51.444;7.196;2022-12-07T08:16:04;3.70;99.90
1049;DHT22;513;51.444;7.196;2022-12-07T08:18:35;3.70;99.90
1049;DHT22;513;51.444;7.196;2022-12-07T08:21:02;3.70;99.90
1049;DHT22;513;51.444;7.196;2022-12-07T08:23:28;3.70;99.90
1049;DHT22;513;51.444;7.196;2022-12-07T08:25:56;3.70;99.90
1049;DHT22;513;51.444;7.196;2022-12-07T08:28:26;3.70;99.90
1049;DHT22;513;51.444;7.196;2022-12-07T08:30:52;3.70;99.90
1049;DHT22;513;51.444;7.196;2022-12-07T08:33:24;3.80;99.90
1049;DHT22;513;51.444;7.196;2022-12-07T08:35:52;3.80;99.90
1049;DHT22;513;51.444;7.196;2022-12-07T08:38:19;3.80;99.90
1049;DHT22;513;51.444;7.196;2022-12-07T08:40:53;3.90;99.90
1049;DHT22;513;51.444;7.196;2022-12-07T08:43:20;3.90;99.90
1049;DHT22;513;51.444;7.196;2022-12-07T08:45:47;4.00;99.90
1049;DHT22;513;51.444;7.196;2022-12-07T08:48:15;3.90;99.90
1049;DHT22;513;51.444;7.196;2022-12-07T08:50:47;3.90;99.90
1049;DHT22;513;51.444;7.196;2022-12-07T08:53:16;4.00;99.90
1049;DHT22;513;51.444;7.196;2022-12-07T08:55:43;4.00;99.90
1049;DHT22;513;51.444;7.196;2022-12-07T08:58:10;4.10;99.90
1049;DHT22;513;51.444;7.196;2022-12-07T09:00:37;4.10;99.90
1049;DHT22;513;51.444;7.196;2022-12-07T09:03:04;4.20;99.90
1049;DHT22;513;51.444;7.196;2022-12-07T09:05:32;4.20;99.90
1049;DHT22;513;51.444;7.196;2022-12-07T09:08:01;4.20;99.90
1049;DHT22;513;51.444;7.196;2022-12-07T09:10:29;4.20;99.90
1049;DHT22;513;51.444;7.196;2022-12-07T09:12:56;4.20;99.90
1049;DHT22;513;51.444;7.196;2022-12-07T09:15:26;4.20;99.90
1049;DHT22;513;51.444;7.196;2022-12-07T09:17:52;4.30;99.90
1049;DHT22;513;51.444;7.196;2022-12-07T09:20:19;4.30;99.90
1049;DHT22;513;51.444;7.196;2022-12-07T09:22:46;4.20;99.90
1049;DHT22;513;51.444;7.196;2022-12-07T09:25:13;4.20;99.90
1049;DHT22;513;51.444;7.196;2022-12-07T09:27:41;4.30;99.90
1049;DHT22;513;51.444;7.196;2022-12-07T09:30:08;4.20;99.90
1049;DHT22;513;51.444;7.196;2022-12-07T09:32:35;4.30;99.90
1049;DHT22;513;51.444;7.196;2022-12-07T09:35:02;4.40;99.90
1049;DHT22;513;51.444;7.196;2022-12-07T09:37:30;4.40;99.90
1049;DHT22;513;51.444;7.196;2022-12-07T09:40:00;4.50;99.90
1049;DHT22;513;51.444;7.196;2022-12-07T09:42:29;4.50;99.90
1049;DHT22;513;51.444;7.196;2022-12-07T09:45:00;4.50;99.90
1049;DHT22;513;51.444;7.196;2022-12-07T09:47:27;4.50;99.90
1049;DHT22;513;51.444;7.196;2022-12-07T09:50:00;4.50;99.90
1049;DHT22;513;51.444;7.196;2022-12-07T09:52:29;4.60;99.90
1049;DHT22;513;51.444;7.196;2022-12-07T09:54:57;4.60;99.90
1049;DHT22;513;51.444;7.196;2022-12-07T09:57:28;4.60;99.90
1049;DHT22;513;51.444;7.196;2022-12-07T09:59:56;4.50;99.90
1049;DHT22;513;51.444;7.196;2022-12-07T10:02:35;4.50;99.90
1049;DHT22;513;51.444;7.196;2022-12-07T10:05:04;4.60;99.90
1049;DHT22;513;51.444;7.196;2022-12-07T10:07:31;4.70;99.90
1049;DHT22;513;51.444;7.196;2022-12-07T10:09:58;4.70;99.90
1049;DHT22;513;51.444;7.196;2022-12-07T10:12:24;4.80;99.90
1049;DHT22;513;51.444;7.196;2022-12-07T10:14:56;4.90;99.90
1049;DHT22;513;51.444;7.196;2022-12-07T10:17:34;4.80;99.90
1049;DHT22;513;51.444;7.196;2022-12-07T10:20:21;4.90;99.90
1049;DHT22;513;51.444;7.196;2022-12-07T10:23:08;4.90;99.90
1049;DHT22;513;51.444;7.196;2022-12-07T10:25:40;4.90;99.90
1049;DHT22;513;51.444;7.196;2022-12-07T10:28:13;4.90;99.90
1049;DHT22;513;51.444;7.196;2022-12-07T10:30:50;4.90;99.90
1049;DHT22;513;51.444;7.196;2022-12-07T10:33:30;5.00;99.90
1049;DHT22;513;51.444;7.196;2022-12-07T10:35:57;5.00;99.90
1049;DHT22;513;51.444;7.196;2022-12-07T10:38:25;5.10;99.90
1049;DHT22;513;51.444;7.196;2022-12-07T10:41:03;5.10;99.90
1049;DHT22;513;51.444;7.196;2022-12-07T10:43:30;5.10;99.90
1049;DHT22;513;51.444;7.196;2022-12-07T10:49:03;5.20;99.90
1049;DHT22;513;51.444;7.196;2022-12-07T10:51:38;5.30;99.90
1049;DHT22;513;51.444;7.196;2022-12-07T10:54:12;5.40;99.90
1049;DHT22;513;51.444;7.196;2022-12-07T10:57:05;5.40;99.90
1049;DHT22;513;51.444;7.196;2022-12-07T10:59:53;5.50;99.90
1049;DHT22;513;51.444;7.196;2022-12-07T11:02:45;5.50;99.90
1049;DHT22;513;51.444;7.196;2022-12-07T11:05:24;5.50;99.90
1049;DHT22;513;51.444;7.196;2022-12-07T11:08:00;5.40;99.90
1049;DHT22;513;51.444;7.196;2022-12-07T11:10:37;5.40;99.90
1049;DHT22;513;51.444;7.196;2022-12-07T11:13:25;5.40;99.90
1049;DHT22;513;51.444;7.196;2022-12-07T11:16:08;5.40;99.90
1049;DHT22;513;51.444;7.196;2022-12-07T11:18:45;5.40;99.90
1049;DHT22;513;51.444;7.196;2022-12-07T11:21:23;5.30;99.90
1049;DHT22;513;51.444;7.196;2022-12-07T11:24:01;5.30;99.90
1049;DHT22;513;51.444;7.196;2022-12-07T11:26:42;5.40;99.90
1049;DHT22;513;51.444;7.196;2022-12-07T11:29:28;5.40;99.90
1049;DHT22;513;51.444;7.196;2022-12-07T11:32:07;5.50;99.90
1049;DHT22;513;51.444;7.196;2022-12-07T11:34:42;5.60;99.90
1049;DHT22;513;51.444;7.196;2022-12-07T11:37:18;5.60;99.90
1049;DHT22;513;51.444;7.196;2022-12-07T11:39:49;5.60;99.90
1049;DHT22;513;51.444;7.196;2022-12-07T11:42:21;5.50;99.90
1049;DHT22;513;51.444;7.196;2022-12-07T11:44:52;5.50;99.90
1049;DHT22;513;51.444;7.196;2022-12-07T11:47:24;5.60;99.90
1049;DHT22;513;51.444;7.196;2022-12-07T11:49:54;5.70;99.90
1049;DHT22;513;51.444;7.196;2022-12-07T11:52:30;5.80;99.90
1049;DHT22;513;51.444;7.196;2022-12-07T11:55:00;6.00;99.90
1049;DHT22;513;51.444;7.196;2022-12-07T11:57:35;6.00;99.90
1049;DHT22;513;51.444;7.196;2022-12-07T12:00:09;6.00;99.90
1049;DHT22;513;51.444;7.196;2022-12-07T12:02:43;6.00;99.90
1049;DHT22;513;51.444;7.196;2022-12-07T12:05:17;6.00;99.90
1049;DHT22;513;51.444;7.196;2022-12-07T12:07:51;6.00;99.90
1049;DHT22;513;51.444;7.196;2022-12-07T12:10:24;6.00;99.90
1049;DHT22;513;51.444;7.196;2022-12-07T12:13:21;5.90;99.90
1049;DHT22;513;51.444;7.196;2022-12-07T12:16:05;5.90;99.90
1049;DHT22;513;51.444;7.196;2022-12-07T12:18:53;5.90;99.90
1049;DHT22;513;51.444;7.196;2022-12-07T12:21:26;5.90;99.90
1049;DHT22;513;51.444;7.196;2022-12-07T12:23:58;5.80;99.90
1049;DHT22;513;51.444;7.196;2022-12-07T12:26:28;5.80;99.90
1049;DHT22;513;51.444;7.196;2022-12-07T12:28:58;5.80;99.90
1049;DHT22;513;51.444;7.196;2022-12-07T12:31:34;5.80;99.90
1049;DHT22;513;51.444;7.196;2022-12-07T12:34:04;5.70;99.90
1049;DHT22;513;51.444;7.196;2022-12-07T12:36:46;5.70;99.90
1049;DHT22;513;51.444;7.196;2022-12-07T12:39:15;5.70;99.90
1049;DHT22;513;51.444;7.196;2022-12-07T12:41:58;5.70;99.90
1049;DHT22;513;51.444;7.196;2022-12-07T12:44:42;5.70;99.90
1049;DHT22;513;51.444;7.196;2022-12-07T12:50:28;5.70;99.90
1049;DHT22;513;51.444;7.196;2022-12-07T12:52:58;5.70;99.90
1049;DHT22;513;51.444;7.196;2022-12-07T12:58:39;5.90;99.90
1049;DHT22;513;51.444;7.196;2022-12-07T13:01:39;5.90;99.90
1049;DHT22;513;51.444;7.196;2022-12-07T13:04:28;5.90;99.90
1049;DHT22;513;51.444;7.196;2022-12-07T13:06:57;6.00;99.90
1049;DHT22;513;51.444;7.196;2022-12-07T13:09:26;6.00;99.90
1049;DHT22;513;51.444;7.196;2022-12-07T13:12:01;6.00;99.90
1049;DHT22;513;51.444;7.196;2022-12-07T13:14:55;5.90;99.90
1049;DHT22;513;51.444;7.196;2022-12-07T13:17:54;5.90;99.90
1049;DHT22;513;51.444;7.196;2022-12-07T13:20:44;5.90;99.90
1049;DHT22;513;51.444;7.196;2022-12-07T13:23:12;5.90;99.90
1049;DHT22;513;51.444;7.196;2022-12-07T13:25:46;5.90;99.90
1049;DHT22;513;51.444;7.196;2022-12-07T13:28:16;5.80;99.90
1049;DHT22;513;51.444;7.196;2022-12-07T13:30:53;5.80;99.90
1049;DHT22;513;51.444;7.196;2022-12-07T13:33:20;5.80;99.90
1049;DHT22;513;51.444;7.196;2022-12-07T13:35:47;5.80;99.90
1049;DHT22;513;51.444;7.196;2022-12-07T13:38:23;5.80;99.90
1049;DHT22;513;51.444;7.196;2022-12-07T13:41:11;5.80;99.90
1049;DHT22;513;51.444;7.196;2022-12-07T13:43:48;5.80;99.90
1049;DHT22;513;51.444;7.196;2022-12-07T13:46:18;5.80;99.90
1049;DHT22;513;51.444;7.196;2022-12-07T13:48:47;5.90;99.90
1049;DHT22;513;51.444;7.196;2022-12-07T13:51:19;5.80;99.90
1049;DHT22;513;51.444;7.196;2022-12-07T13:53:47;5.80;99.90
1049;DHT22;513;51.444;7.196;2022-12-07T13:56:15;5.80;99.90
1049;DHT22;513;51.444;7.196;2022-12-07T13:58:42;5.80;99.90
1049;DHT22;513;51.444;7.196;2022-12-07T14:01:09;5.80;99.90
1049;DHT22;513;51.444;7.196;2022-12-07T14:03:37;5.80;99.90
1049;DHT22;513;51.444;7.196;2022-12-07T14:06:07;5.80;99.90
1049;DHT22;513;51.444;7.196;2022-12-07T14:08:34;5.90;99.90
1049;DHT22;513;51.444;7.196;2022-12-07T14:11:00;6.00;99.90
1049;DHT22;513;51.444;7.196;2022-12-07T14:13:30;6.00;99.90
1049;DHT22;513;51.444;7.196;2022-12-07T14:15:58;6.10;99.90
1049;DHT22;513;51.444;7.196;2022-12-07T14:18:27;6.20;99.90
1049;DHT22;513;51.444;7.196;2022-12-07T14:21:05;6.30;99.90
1049;DHT22;513;51.444;7.196;2022-12-07T14:23:32;6.30;99.90
1049;DHT22;513;51.444;7.196;2022-12-07T14:26:07;6.30;99.90
1049;DHT22;513;51.444;7.196;2022-12-07T14:28:35;6.20;99.90
1049;DHT22;513;51.444;7.196;2022-12-07T14:31:03;6.10;99.90
1049;DHT22;513;51.444;7.196;2022-12-07T14:33:34;6.10;99.90
1049;DHT22;513;51.444;7.196;2022-12-07T14:36:01;5.90;99.90
1049;DHT22;513;51.444;7.196;2022-12-07T14:38:29;5.80;99.90
1049;DHT22;513;51.444;7.196;2022-12-07T14:40:56;5.70;99.90
1049;DHT22;513;51.444;7.196;2022-12-07T14:43:44;5.60;99.90
1049;DHT22;513;51.444;7.196;2022-12-07T14:46:11;5.60;99.90
1049;DHT22;513;51.444;7.196;2022-12-07T14:48:37;5.50;99.90
1049;DHT22;513;51.444;7.196;2022-12-07T14:51:05;5.50;99.90
1049;DHT22;513;51.444;7.196;2022-12-07T14:53:35;5.40;99.90
1049;DHT22;513;51.444;7.196;2022-12-07T14:56:02;5.40;99.90
1049;DHT22;513;51.444;7.196;2022-12-07T14:58:30;5.30;99.90
1049;DHT22;513;51.444;7.196;2022-12-07T15:00:57;5.30;99.90
1049;DHT22;513;51.444;7.196;2022-12-07T15:03:24;5.10;99.90
1049;DHT22;513;51.444;7.196;2022-12-07T15:05:51;5.00;99.90
1049;DHT22;513;51.444;7.196;2022-12-07T15:08:17;5.00;99.90
1049;DHT22;513;51.444;7.196;2022-12-07T15:10:45;4.90;99.90
1049;DHT22;513;51.444;7.196;2022-12-07T15:13:12;4.80;99.90
1049;DHT22;513;51.444;7.196;2022-12-07T15:15:56;4.70;99.90
1049;DHT22;513;51.444;7.196;2022-12-07T15:18:23;4.60;99.90
1049;DHT22;513;51.444;7.196;2022-12-07T15:20:50;4.60;99.90
1049;DHT22;513;51.444;7.196;2022-12-07T15:23:17;4.60;99.90
1049;DHT22;513;51.444;7.196;2022-12-07T15:25:48;4.60;99.90
1049;DHT22;513;51.444;7.196;2022-12-07T15:28:15;4.50;99.90
1049;DHT22;513;51.444;7.196;2022-12-07T15:30:42;4.40;99.90
1049;DHT22;513;51.444;7.196;2022-12-07T15:33:10;4.30;99.90
1049;DHT22;513;51.444;7.196;2022-12-07T15:35:38;4.30;99.90
1049;DHT22;513;51.444;7.196;2022-12-07T15:38:05;4.10;99.90
1049;DHT22;513;51.444;7.196;2022-12-07T15:40:32;4.10;99.90
1049;DHT22;513;51.444;7.196;2022-12-07T15:43:00;4.10;99.90
1049;DHT22;513;51.444;7.196;2022-12-07T15:45:26;4.00;99.90
1049;DHT22;513;51.444;7.196;2022-12-07T15:47:52;4.00;99.90
1049;DHT22;513;51.444;7.196;2022-12-07T15:50:20;4.10;99.90
1049;DHT22;513;51.444;7.196;2022-12-07T15:52:48;4.00;99.90
1049;DHT22;513;51.444;7.196;2022-12-07T15:55:14;4.00;99.90
1049;DHT22;513;51.444;7.196;2022-12-07T15:57:41;4.30;99.90
1049;DHT22;513;51.444;7.196;2022-12-07T16:00:10;4.50;99.90
1049;DHT22;513;51.444;7.196;2022-12-07T16:02:38;4.70;99.90
1049;DHT22;513;51.444;7.196;2022-12-07T16:05:04;4.80;99.90
1049;DHT22;513;51.444;7.196;2022-12-07T16:07:31;4.70;99.90
1049;DHT22;513;51.444;7.196;2022-12-07T16:09:58;4.60;99.90
1049;DHT22;513;51.444;7.196;2022-12-07T16:12:24;4.40;99.90
1049;DHT22;513;51.444;7.196;2022-12-07T16:14:51;4.40;99.90
1049;DHT22;513;51.444;7.196;2022-12-07T16:17:19;4.20;99.90
1049;DHT22;513;51.444;7.196;2022-12-07T16:19:47;4.20;99.90
1049;DHT22;513;51.444;7.196;2022-12-07T16:22:13;4.10;99.90
1049;DHT22;513;51.444;7.196;2022-12-07T16:24:40;4.10;99.90
1049;DHT22;513;51.444;7.196;2022-12-07T16:27:07;4.10;99.90
1049;DHT22;513;51.444;7.196;2022-12-07T16:29:34;4.00;99.90
1049;DHT22;513;51.444;7.196;2022-12-07T16:32:00;4.00;99.90
1049;DHT22;513;51.444;7.196;2022-12-07T16:34:28;4.00;99.90
1049;DHT22;513;51.444;7.196;2022-12-07T16:36:55;4.10;99.90
1049;DHT22;513;51.444;7.196;2022-12-07T16:39:22;4.10;99.90
1049;DHT22;513;51.444;7.196;2022-12-07T16:41:50;4.10;99.90
1049;DHT22;513;51.444;7.196;2022-12-07T16:44:18;4.10;99.90
1049;DHT22;513;51.444;7.196;2022-12-07T16:46:44;4.10;99.90
1049;DHT22;513;51.444;7.196;2022-12-07T16:49:12;4.10;99.90
1049;DHT22;513;51.444;7.196;2022-12-07T16:51:41;4.10;99.90
1049;DHT22;513;51.444;7.196;2022-12-07T16:54:10;4.10;99.90
1049;DHT22;513;51.444;7.196;2022-12-07T16:56:37;4.10;99.90
1049;DHT22;513;51.444;7.196;2022-12-07T16:59:03;4.10;99.90
1049;DHT22;513;51.444;7.196;2022-12-07T17:01:30;4.10;99.90
1049;DHT22;513;51.444;7.196;2022-12-07T17:03:57;4.10;99.90